createdAt,value
2022-07-25T00:00:20.691Z,26.60
2022-07-25T00:02:22.863Z,26.60
2022-07-25T00:04:24.649Z,26.60
2022-07-25T00:06:26.726Z,26.60
2022-07-25T00:08:28.414Z,26.60
2022-07-25T00:10:30.159Z,26.60
2022-07-25T00:12:31.989Z,26.60
2022-07-25T00:14:33.680Z,26.60
2022-07-25T00:16:35.490Z,26.60
2022-07-25T00:18:37.257Z,26.60
2022-07-25T00:20:38.923Z,26.50
2022-07-25T00:22:40.647Z,26.50
2022-07-25T00:24:42.323Z,26.50
2022-07-25T00:26:44.045Z,26.50
2022-07-25T00:28:46.096Z,26.50
2022-07-25T00:30:47.983Z,26.50
2022-07-25T00:32:49.757Z,26.50
2022-07-25T00:34:51.600Z,26.50
2022-07-25T00:36:53.488Z,26.50
2022-07-25T00:38:55.131Z,26.50
2022-07-25T00:40:56.860Z,26.50
2022-07-25T00:42:58.623Z,26.40
2022-07-25T00:45:00.325Z,26.40
2022-07-25T00:47:02.057Z,26.40
2022-07-25T00:49:03.821Z,26.40
2022-07-25T00:51:05.837Z,26.40
2022-07-25T00:53:07.571Z,26.40
2022-07-25T00:55:09.321Z,26.40
2022-07-25T00:57:11.007Z,26.30
2022-07-25T00:59:12.720Z,26.30
2022-07-25T01:01:14.644Z,26.40
2022-07-25T01:03:16.702Z,26.30
2022-07-25T01:05:18.474Z,26.30
2022-07-25T01:07:20.282Z,26.30
2022-07-25T01:09:22.157Z,26.30
2022-07-25T01:11:24.691Z,26.30
2022-07-25T01:13:26.346Z,26.30
2022-07-25T01:15:28.169Z,26.30
2022-07-25T01:17:29.902Z,26.30
2022-07-25T01:19:31.602Z,26.20
2022-07-25T01:21:33.354Z,26.30
2022-07-25T01:23:35.183Z,26.20
2022-07-25T01:25:36.941Z,26.20
2022-07-25T01:27:38.646Z,26.20
2022-07-25T01:29:40.309Z,26.20
2022-07-25T01:31:42.042Z,26.10
2022-07-25T01:33:43.820Z,26.10
2022-07-25T01:35:46.010Z,26.10
2022-07-25T01:37:47.704Z,26.10
2022-07-25T01:39:49.394Z,26.10
2022-07-25T01:41:51.084Z,26.10
2022-07-25T01:43:52.761Z,26.10
2022-07-25T01:45:54.532Z,26.00
2022-07-25T01:47:56.226Z,26.00
2022-07-25T01:49:57.947Z,26.00
2022-07-25T01:52:00.339Z,26.00
2022-07-25T01:54:02.072Z,26.00
2022-07-25T01:56:05.736Z,26.00
2022-07-25T01:58:10.078Z,26.00
2022-07-25T02:00:13.590Z,25.90
2022-07-25T02:02:15.262Z,25.90
2022-07-25T02:04:16.997Z,25.90
2022-07-25T02:06:19.430Z,25.90
2022-07-25T02:08:21.166Z,25.90
2022-07-25T02:10:22.849Z,25.90
2022-07-25T02:12:24.552Z,25.90
2022-07-25T02:14:26.311Z,25.90
2022-07-25T02:16:28.671Z,25.90
2022-07-25T02:18:31.183Z,25.90
2022-07-25T02:20:32.932Z,25.80
2022-07-25T02:22:34.742Z,25.80
2022-07-25T02:24:37.162Z,25.80
2022-07-25T02:26:38.818Z,25.80
2022-07-25T02:28:40.530Z,25.80
2022-07-25T02:30:42.329Z,25.80
2022-07-25T02:32:44.050Z,25.70
2022-07-25T02:34:45.832Z,25.70
2022-07-25T02:36:47.820Z,25.70
2022-07-25T02:38:49.502Z,25.70
2022-07-25T02:40:52.470Z,25.70
2022-07-25T02:42:54.152Z,25.70
2022-07-25T02:44:55.840Z,25.70
2022-07-25T02:46:57.521Z,25.70
2022-07-25T02:48:59.348Z,25.70
2022-07-25T02:51:01.093Z,25.70
2022-07-25T02:53:03.187Z,25.60
2022-07-25T02:55:09.508Z,25.60
2022-07-25T02:57:11.447Z,25.60
2022-07-25T02:59:13.111Z,25.60
2022-07-25T03:01:15.061Z,25.60
2022-07-25T03:03:16.830Z,25.50
2022-07-25T03:05:18.656Z,25.50
2022-07-25T03:07:20.364Z,25.50
2022-07-25T03:09:22.053Z,25.50
2022-07-25T03:11:23.880Z,25.50
2022-07-25T03:13:25.778Z,25.40
2022-07-25T03:15:27.538Z,25.40
2022-07-25T03:17:29.202Z,25.40
2022-07-25T03:19:30.886Z,25.40
2022-07-25T03:21:32.632Z,25.40
2022-07-25T03:23:34.315Z,25.40
2022-07-25T03:25:36.004Z,25.40
2022-07-25T03:27:37.725Z,25.30
2022-07-25T03:29:39.595Z,25.30
2022-07-25T03:31:41.344Z,25.30
2022-07-25T03:33:43.049Z,25.30
2022-07-25T03:35:45.215Z,25.30
2022-07-25T03:37:47.266Z,25.20
2022-07-25T03:39:49.126Z,25.20
2022-07-25T03:41:52.754Z,25.20
2022-07-25T03:43:54.463Z,25.20
2022-07-25T03:45:56.233Z,25.20
2022-07-25T03:47:58.205Z,25.20
2022-07-25T03:49:59.881Z,25.20
2022-07-25T03:52:01.620Z,25.10
2022-07-25T03:54:03.795Z,25.10
2022-07-25T03:56:05.967Z,25.10
2022-07-25T03:58:07.790Z,25.10
2022-07-25T04:00:10.297Z,25.10
2022-07-25T04:02:14.799Z,25.00
2022-07-25T04:04:17.646Z,25.00
2022-07-25T04:06:19.444Z,25.00
2022-07-25T04:08:21.157Z,25.00
2022-07-25T04:10:22.932Z,25.00
2022-07-25T04:12:24.787Z,25.00
2022-07-25T04:14:26.449Z,25.00
2022-07-25T04:16:28.544Z,25.00
2022-07-25T04:18:31.960Z,25.00
2022-07-25T04:20:37.431Z,24.90
2022-07-25T04:22:42.185Z,24.90
2022-07-25T04:24:46.556Z,24.90
2022-07-25T04:26:48.220Z,24.90
2022-07-25T04:28:50.368Z,24.90
2022-07-25T04:30:52.437Z,24.90
2022-07-25T04:32:54.121Z,24.90
2022-07-25T04:34:55.856Z,24.90
2022-07-25T04:36:59.265Z,24.90
2022-07-25T04:39:00.938Z,24.90
2022-07-25T04:41:03.182Z,24.90
2022-07-25T04:43:04.857Z,24.90
2022-07-25T04:45:06.801Z,24.90
2022-07-25T04:47:08.482Z,24.90
2022-07-25T04:49:10.299Z,24.90
2022-07-25T04:51:12.090Z,24.90
2022-07-25T04:53:13.821Z,24.90
2022-07-25T04:55:15.805Z,24.90
2022-07-25T04:57:17.511Z,24.90
2022-07-25T04:59:19.150Z,24.90
2022-07-25T05:01:20.901Z,24.90
2022-07-25T05:03:22.856Z,24.80
2022-07-25T05:05:26.924Z,24.90
2022-07-25T05:07:28.810Z,24.80
2022-07-25T05:09:30.501Z,24.90
2022-07-25T05:11:32.174Z,24.90
2022-07-25T05:13:34.089Z,24.90
2022-07-25T05:15:35.806Z,24.90
2022-07-25T05:17:37.454Z,24.90
2022-07-25T05:19:39.146Z,24.90
2022-07-25T05:21:40.839Z,24.90
2022-07-25T05:23:42.559Z,24.90
2022-07-25T05:25:44.259Z,24.90
2022-07-25T05:27:46.295Z,24.90
2022-07-25T05:29:47.992Z,24.90
2022-07-25T05:31:49.758Z,24.90
2022-07-25T05:33:51.490Z,24.90
2022-07-25T05:35:53.234Z,24.90
2022-07-25T05:37:55.009Z,24.90
2022-07-25T05:39:56.890Z,24.90
2022-07-25T05:41:58.754Z,24.90
2022-07-25T05:44:00.433Z,24.90
2022-07-25T05:46:03.014Z,24.90
2022-07-25T05:48:04.709Z,24.90
2022-07-25T05:50:06.597Z,24.90
2022-07-25T05:52:12.884Z,24.90
2022-07-25T05:54:15.033Z,24.90
2022-07-25T05:56:16.778Z,24.90
2022-07-25T05:58:18.517Z,24.90
2022-07-25T06:00:20.197Z,24.90
2022-07-25T06:02:21.987Z,24.90
2022-07-25T06:04:27.177Z,25.00
2022-07-25T06:06:32.611Z,24.90
2022-07-25T06:08:34.942Z,25.00
2022-07-25T06:10:36.781Z,25.00
2022-07-25T06:12:39.099Z,25.00
2022-07-25T06:14:42.231Z,25.00
2022-07-25T06:16:44.676Z,25.00
2022-07-25T06:18:46.404Z,25.00
2022-07-25T06:20:48.753Z,25.10
2022-07-25T06:22:50.533Z,25.10
2022-07-25T06:24:52.225Z,25.10
2022-07-25T06:26:53.915Z,25.20
2022-07-25T06:28:55.923Z,25.20
2022-07-25T06:30:57.624Z,25.20
2022-07-25T06:32:59.371Z,25.20
2022-07-25T06:35:01.077Z,25.20
2022-07-25T06:37:02.843Z,25.30
2022-07-25T06:39:04.540Z,25.30
2022-07-25T06:41:06.347Z,25.30
2022-07-25T06:43:09.246Z,25.40
2022-07-25T06:45:11.563Z,25.40
2022-07-25T06:47:13.573Z,25.40
2022-07-25T06:49:15.251Z,25.40
2022-07-25T06:51:17.041Z,25.40
2022-07-25T06:53:18.775Z,25.50
2022-07-25T06:55:20.492Z,25.50
2022-07-25T06:57:22.253Z,25.50
2022-07-25T06:59:24.043Z,25.60
2022-07-25T07:01:25.865Z,25.60
2022-07-25T07:03:27.814Z,25.70
2022-07-25T07:05:30.862Z,25.70
2022-07-25T07:07:32.615Z,25.70
2022-07-25T07:09:34.394Z,25.70
2022-07-25T07:11:36.235Z,25.80
2022-07-25T07:13:37.962Z,25.80
2022-07-25T07:15:43.665Z,25.90
2022-07-25T07:17:45.489Z,25.90
2022-07-25T07:19:47.276Z,25.90
2022-07-25T07:21:51.385Z,25.90
2022-07-25T07:23:53.762Z,26.00
2022-07-25T07:25:56.036Z,26.00
2022-07-25T07:27:57.889Z,26.10
2022-07-25T07:29:59.607Z,26.10
2022-07-25T07:32:01.433Z,26.10
2022-07-25T07:34:03.181Z,26.20
2022-07-25T07:36:05.012Z,26.20
2022-07-25T07:38:06.744Z,26.30
2022-07-25T07:40:08.917Z,26.30
2022-07-25T07:42:19.039Z,26.40
2022-07-25T07:44:20.714Z,26.40
2022-07-25T07:46:22.507Z,26.40
2022-07-25T07:48:24.243Z,26.50
2022-07-25T07:50:26.977Z,26.50
2022-07-25T07:52:28.710Z,26.50
2022-07-25T07:54:49.269Z,26.60
2022-07-25T07:56:51.030Z,26.60
2022-07-25T07:58:52.695Z,26.70
2022-07-25T08:00:54.540Z,26.70
2022-07-25T08:02:57.097Z,26.70
2022-07-25T08:04:58.843Z,26.80
2022-07-25T08:07:00.645Z,26.80
2022-07-25T08:09:02.357Z,26.80
2022-07-25T08:11:04.100Z,26.90
2022-07-25T08:13:15.301Z,27.00
2022-07-25T08:15:17.813Z,27.00
2022-07-25T08:17:20.887Z,27.10
2022-07-25T08:19:25.320Z,27.10
2022-07-25T08:21:28.779Z,27.20
2022-07-25T08:23:31.889Z,27.30
2022-07-25T08:25:35.061Z,27.40
2022-07-25T08:27:36.806Z,27.40
2022-07-25T08:29:39.011Z,27.40
2022-07-25T08:31:40.761Z,27.50
2022-07-25T08:33:42.556Z,27.60
2022-07-25T08:35:48.516Z,27.60
2022-07-25T08:37:50.591Z,27.70
2022-07-25T08:39:52.489Z,27.70
2022-07-25T08:41:54.285Z,27.80
2022-07-25T08:43:56.199Z,27.80
2022-07-25T08:45:59.977Z,27.90
2022-07-25T08:48:01.819Z,27.90
2022-07-25T08:50:08.329Z,27.90
2022-07-25T08:52:10.238Z,28.00
2022-07-25T08:54:12.079Z,28.10
2022-07-25T08:56:20.587Z,28.10
2022-07-25T08:58:22.791Z,28.20
2022-07-25T09:00:26.316Z,28.20
2022-07-25T09:02:28.680Z,28.30
2022-07-25T09:04:30.552Z,28.30
2022-07-25T09:06:32.311Z,28.40
2022-07-25T09:08:34.058Z,28.40
2022-07-25T09:10:36.910Z,28.50
2022-07-25T09:12:39.550Z,28.50
2022-07-25T09:14:44.643Z,28.60
2022-07-25T09:16:46.402Z,28.60
2022-07-25T09:18:49.568Z,28.70
2022-07-25T09:20:58.604Z,28.80
2022-07-25T09:23:00.321Z,28.80
2022-07-25T09:25:02.057Z,28.80
2022-07-25T09:27:12.470Z,28.90
2022-07-25T09:29:23.902Z,29.00
2022-07-25T09:31:32.044Z,29.00
2022-07-25T09:33:33.973Z,29.10
2022-07-25T09:35:38.899Z,29.20
2022-07-25T09:37:40.929Z,29.20
2022-07-25T09:39:48.228Z,29.30
2022-07-25T09:41:51.015Z,29.30
2022-07-25T09:43:53.020Z,29.40
2022-07-25T09:45:54.775Z,29.50
2022-07-25T09:47:58.020Z,29.50
2022-07-25T09:50:00.178Z,29.60
2022-07-25T09:52:01.920Z,29.60
2022-07-25T09:54:04.120Z,29.70
2022-07-25T09:56:07.695Z,29.80
2022-07-25T09:58:09.400Z,29.80
2022-07-25T10:00:17.518Z,29.90
2022-07-25T10:02:31.204Z,30.00
2022-07-25T10:04:44.605Z,30.00
2022-07-25T10:07:04.122Z,30.10
2022-07-25T10:09:12.826Z,30.20
2022-07-25T10:11:25.458Z,30.30
2022-07-25T10:13:31.672Z,30.40
2022-07-25T10:15:48.132Z,30.50
2022-07-25T10:17:52.131Z,30.60
2022-07-25T10:19:58.529Z,30.60
2022-07-25T10:22:00.674Z,30.70
2022-07-25T10:24:07.233Z,30.80
2022-07-25T10:26:16.225Z,30.80
2022-07-25T10:28:19.817Z,30.90
2022-07-25T10:30:25.874Z,31.00
2022-07-25T10:32:32.804Z,31.10
2022-07-25T10:34:34.681Z,31.20
2022-07-25T10:36:56.035Z,31.30
2022-07-25T10:38:59.314Z,31.30
2022-07-25T10:41:02.119Z,31.40
2022-07-25T10:43:20.027Z,31.50
2022-07-25T10:45:21.691Z,31.50
2022-07-25T10:47:24.395Z,31.60
2022-07-25T10:49:31.864Z,31.70
2022-07-25T10:51:41.356Z,31.70
2022-07-25T10:53:45.493Z,31.70
2022-07-25T10:56:05.679Z,31.80
2022-07-25T10:58:17.556Z,31.80
2022-07-25T11:00:20.221Z,31.90
2022-07-25T11:02:24.038Z,32.00
2022-07-25T11:04:25.951Z,32.00
2022-07-25T11:06:38.732Z,32.00
2022-07-25T11:08:40.999Z,32.10
2022-07-25T11:10:50.118Z,32.10
2022-07-25T11:12:51.907Z,32.20
2022-07-25T11:15:00.156Z,32.20
2022-07-25T11:17:11.365Z,32.30
2022-07-25T11:19:20.491Z,32.40
2022-07-25T11:21:22.316Z,32.40
2022-07-25T11:23:24.084Z,32.50
2022-07-25T11:25:25.766Z,32.60
2022-07-25T11:27:28.776Z,32.60
2022-07-25T11:29:30.619Z,32.60
2022-07-25T11:31:32.514Z,32.60
2022-07-25T11:33:38.388Z,32.70
2022-07-25T11:35:40.780Z,32.80
2022-07-25T11:37:44.020Z,32.80
2022-07-25T11:39:46.902Z,32.70
2022-07-25T11:41:58.374Z,32.80
2022-07-25T11:44:00.171Z,32.80
2022-07-25T11:46:03.909Z,32.90
2022-07-25T11:48:06.727Z,32.90
2022-07-25T11:50:14.617Z,33.00
2022-07-25T11:52:21.164Z,33.00
2022-07-25T11:54:22.923Z,33.00
2022-07-25T11:56:41.772Z,33.00
2022-07-25T11:58:45.020Z,33.10
2022-07-25T12:00:48.289Z,33.10
2022-07-25T12:02:50.520Z,33.10
2022-07-25T12:04:59.580Z,33.10
2022-07-25T12:07:04.374Z,33.20
2022-07-25T12:09:18.025Z,33.20
2022-07-25T12:11:21.462Z,33.30
2022-07-25T12:13:24.451Z,33.30
2022-07-25T12:15:30.424Z,33.40
2022-07-25T12:17:32.114Z,33.40
2022-07-25T12:19:33.801Z,33.50
2022-07-25T12:21:36.078Z,33.60
2022-07-25T12:23:38.943Z,33.70
2022-07-25T12:25:42.488Z,33.80
2022-07-25T12:27:44.270Z,33.90
2022-07-25T12:29:46.000Z,34.00
2022-07-25T12:31:47.718Z,34.10
2022-07-25T12:33:49.597Z,34.20
2022-07-25T12:35:51.411Z,34.30
2022-07-25T12:37:53.279Z,34.40
2022-07-25T12:39:55.133Z,34.50
2022-07-25T12:41:57.030Z,34.60
2022-07-25T12:44:00.431Z,34.60
2022-07-25T12:46:02.250Z,34.70
2022-07-25T12:48:04.215Z,34.80
2022-07-25T12:50:06.390Z,34.90
2022-07-25T12:52:08.215Z,35.00
2022-07-25T12:54:10.253Z,35.10
2022-07-25T12:56:12.122Z,35.10
2022-07-25T12:58:15.148Z,35.10
2022-07-25T13:00:18.575Z,35.20
2022-07-25T13:02:20.384Z,35.30
2022-07-25T13:04:22.129Z,35.30
2022-07-25T13:06:23.869Z,35.40
2022-07-25T13:08:25.820Z,35.40
2022-07-25T13:10:27.600Z,35.50
2022-07-25T13:12:29.650Z,35.50
2022-07-25T13:14:31.382Z,35.60
2022-07-25T13:16:34.458Z,35.70
2022-07-25T13:18:36.212Z,35.70
2022-07-25T13:20:38.162Z,35.70
2022-07-25T13:22:39.971Z,35.70
2022-07-25T13:24:41.794Z,35.80
2022-07-25T13:26:43.584Z,35.80
2022-07-25T13:28:45.702Z,35.80
2022-07-25T13:30:47.811Z,35.80
2022-07-25T13:32:49.582Z,35.80
2022-07-25T13:34:51.317Z,35.70
2022-07-25T13:36:53.086Z,35.70
2022-07-25T13:38:54.780Z,35.70
2022-07-25T13:40:59.123Z,35.70
2022-07-25T13:43:01.099Z,35.60
2022-07-25T13:45:03.606Z,35.50
2022-07-25T13:47:05.459Z,35.50
2022-07-25T13:49:07.674Z,35.40
2022-07-25T13:51:09.769Z,35.40
2022-07-25T13:53:11.598Z,35.30
2022-07-25T13:55:13.645Z,35.30
2022-07-25T13:57:15.378Z,35.20
2022-07-25T13:59:21.219Z,35.10
2022-07-25T14:01:25.380Z,35.10
2022-07-25T14:03:27.377Z,35.10
2022-07-25T14:05:29.333Z,35.10
2022-07-25T14:07:31.098Z,35.10
2022-07-25T14:09:32.861Z,35.00
2022-07-25T14:11:34.622Z,35.00
2022-07-25T14:13:36.468Z,34.90
2022-07-25T14:15:38.463Z,34.90
2022-07-25T14:17:40.467Z,34.80
2022-07-25T14:19:42.675Z,34.80
2022-07-25T14:21:44.668Z,34.70
2022-07-25T14:23:46.410Z,34.70
2022-07-25T14:25:48.177Z,34.60
2022-07-25T14:27:50.081Z,34.60
2022-07-25T14:29:51.832Z,34.60
2022-07-25T14:31:53.719Z,34.60
2022-07-25T14:33:55.584Z,34.60
2022-07-25T14:35:57.405Z,34.60
2022-07-25T14:37:59.204Z,34.60
2022-07-25T14:40:01.855Z,34.60
2022-07-25T14:42:04.554Z,34.60
2022-07-25T14:44:06.526Z,34.60
2022-07-25T14:46:09.572Z,34.70
2022-07-25T14:48:11.377Z,34.60
2022-07-25T14:50:13.291Z,34.60
2022-07-25T14:52:15.677Z,34.60
2022-07-25T14:54:18.381Z,34.60
2022-07-25T14:56:20.230Z,34.70
2022-07-25T14:58:22.058Z,34.70
2022-07-25T15:00:27.713Z,34.70
2022-07-25T15:02:32.337Z,34.80
2022-07-25T15:04:47.987Z,34.90
2022-07-25T15:06:54.916Z,35.00
2022-07-25T15:22:03.287Z,35.30
2022-07-25T15:27:18.337Z,35.30
2022-07-25T15:32:08.303Z,35.30
2022-07-25T15:34:13.583Z,35.30
2022-07-25T15:36:25.726Z,35.30
2022-07-25T15:38:40.779Z,35.40
2022-07-25T15:40:56.640Z,35.30
2022-07-25T15:43:00.763Z,35.30
2022-07-25T15:45:31.581Z,35.30
2022-07-25T15:47:24.327Z,35.30
2022-07-25T15:49:27.147Z,35.30
2022-07-25T15:51:29.186Z,35.20
2022-07-25T15:53:31.003Z,35.20
2022-07-25T15:55:33.272Z,35.20
2022-07-25T15:57:35.064Z,35.20
2022-07-25T15:59:36.822Z,35.20
2022-07-25T16:01:38.606Z,35.20
2022-07-25T16:03:40.682Z,35.20
2022-07-25T16:05:43.197Z,35.20
2022-07-25T16:07:45.337Z,35.20
2022-07-25T16:09:47.238Z,35.10
2022-07-25T16:11:49.502Z,35.10
2022-07-25T16:13:51.288Z,35.10
2022-07-25T16:15:53.165Z,35.10
2022-07-25T16:18:00.143Z,35.10
2022-07-25T16:20:04.573Z,35.10
2022-07-25T16:22:06.327Z,35.10
2022-07-25T16:24:09.469Z,35.10
2022-07-25T16:26:12.281Z,35.10
2022-07-25T16:28:15.007Z,35.10
2022-07-25T16:30:17.469Z,35.10
2022-07-25T16:32:19.315Z,35.10
2022-07-25T16:34:23.612Z,35.10
2022-07-25T16:36:29.592Z,35.10
2022-07-25T16:38:31.707Z,35.10
2022-07-25T16:40:33.445Z,35.10
2022-07-25T16:42:35.438Z,35.10
2022-07-25T16:44:37.176Z,35.20
2022-07-25T16:46:38.912Z,35.20
2022-07-25T16:48:40.746Z,35.20
2022-07-25T16:50:42.541Z,35.20
2022-07-25T16:52:44.260Z,35.30
2022-07-25T16:54:46.002Z,35.30
2022-07-25T16:56:52.828Z,35.30
2022-07-25T16:58:55.386Z,35.30
2022-07-25T17:00:57.420Z,35.30
2022-07-25T17:02:59.218Z,35.30
2022-07-25T17:05:01.077Z,35.20
2022-07-25T17:07:02.986Z,35.20
2022-07-25T17:09:05.680Z,35.10
2022-07-25T17:11:07.772Z,35.10
2022-07-25T17:13:09.499Z,35.10
2022-07-25T17:15:12.388Z,35.00
2022-07-25T17:17:14.198Z,35.00
2022-07-25T17:19:18.889Z,34.90
2022-07-25T17:21:21.676Z,34.80
2022-07-25T17:23:23.597Z,34.70
2022-07-25T17:25:25.365Z,34.60
2022-07-25T17:27:27.063Z,34.50
2022-07-25T17:29:28.935Z,34.50
2022-07-25T17:31:30.734Z,34.30
2022-07-25T17:33:32.552Z,34.20
2022-07-25T17:35:34.354Z,34.10
2022-07-25T17:37:36.223Z,34.10
2022-07-25T17:39:38.372Z,34.00
2022-07-25T17:41:40.090Z,34.00
2022-07-25T17:43:41.862Z,33.90
2022-07-25T17:45:43.636Z,33.80
2022-07-25T17:47:45.501Z,33.80
2022-07-25T17:49:47.257Z,33.70
2022-07-25T17:51:49.975Z,33.60
2022-07-25T17:53:51.740Z,33.60
2022-07-25T17:55:53.504Z,33.50
2022-07-25T17:57:55.230Z,33.40
2022-07-25T17:59:56.909Z,33.40
2022-07-25T18:01:58.706Z,33.30
2022-07-25T18:04:00.522Z,33.20
2022-07-25T18:06:03.018Z,33.20
2022-07-25T18:08:05.010Z,33.10
2022-07-25T18:10:07.324Z,33.00
2022-07-25T18:12:09.086Z,33.00
2022-07-25T18:14:11.180Z,32.90
2022-07-25T18:16:13.053Z,32.90
2022-07-25T18:18:20.049Z,32.80
2022-07-25T18:20:22.401Z,32.70
2022-07-25T18:22:24.182Z,32.70
2022-07-25T18:24:29.445Z,32.60
2022-07-25T18:26:31.410Z,32.60
2022-07-25T18:28:33.217Z,32.50
2022-07-25T18:30:34.973Z,32.40
2022-07-25T18:32:36.810Z,32.40
2022-07-25T18:34:38.618Z,32.30
2022-07-25T18:36:40.845Z,32.30
2022-07-25T18:38:42.567Z,32.20
2022-07-25T18:40:44.452Z,32.20
2022-07-25T18:42:46.540Z,32.10
2022-07-25T18:44:48.776Z,32.10
2022-07-25T18:46:50.696Z,32.00
2022-07-25T18:48:53.684Z,32.00
2022-07-25T18:50:55.736Z,32.00
2022-07-25T18:52:57.669Z,31.90
2022-07-25T18:54:59.544Z,31.80
2022-07-25T18:57:02.605Z,31.80
2022-07-25T18:59:04.968Z,31.70
2022-07-25T19:01:09.195Z,31.70
2022-07-25T19:03:11.207Z,31.60
2022-07-25T19:05:13.280Z,31.60
2022-07-25T19:07:15.258Z,31.50
2022-07-25T19:09:17.938Z,31.50
2022-07-25T19:11:19.717Z,31.40
2022-07-25T19:13:46.570Z,31.40
2022-07-25T19:15:43.263Z,31.40
2022-07-25T19:17:45.129Z,31.30
2022-07-25T19:19:46.949Z,31.20
2022-07-25T19:21:49.155Z,31.20
2022-07-25T19:23:51.563Z,31.10
2022-07-25T19:25:53.340Z,31.10
2022-07-25T19:27:55.068Z,31.10
2022-07-25T19:29:56.838Z,31.00
2022-07-25T19:31:58.673Z,31.00
2022-07-25T19:34:00.496Z,30.90
2022-07-25T19:36:02.201Z,30.90
2022-07-25T19:38:04.624Z,30.80
2022-07-25T19:40:06.691Z,30.80
2022-07-25T19:42:09.886Z,30.70
2022-07-25T19:44:11.645Z,30.70
2022-07-25T19:46:13.504Z,30.60
2022-07-25T19:48:15.384Z,30.50
2022-07-25T19:50:17.223Z,30.50
2022-07-25T19:52:19.047Z,30.40
2022-07-25T19:54:21.101Z,30.40
2022-07-25T19:56:23.011Z,30.30
2022-07-25T19:58:24.886Z,30.30
2022-07-25T20:00:26.666Z,30.20
2022-07-25T20:02:28.418Z,30.20
2022-07-25T20:04:30.319Z,30.20
2022-07-25T20:06:32.108Z,30.10
2022-07-25T20:08:33.916Z,30.10
2022-07-25T20:10:37.173Z,30.00
2022-07-25T20:12:38.938Z,30.00
2022-07-25T20:14:40.739Z,29.90
2022-07-25T20:16:42.572Z,29.90
2022-07-25T20:18:44.482Z,29.90
2022-07-25T20:20:46.562Z,29.90
2022-07-25T20:22:48.849Z,29.80
2022-07-25T20:24:50.684Z,29.80
2022-07-25T20:26:52.460Z,29.80
2022-07-25T20:28:55.102Z,29.70
2022-07-25T20:30:57.438Z,29.70
2022-07-25T20:32:59.257Z,29.60
2022-07-25T20:35:01.037Z,29.60
2022-07-25T20:37:02.859Z,29.50
2022-07-25T20:39:05.162Z,29.50
2022-07-25T20:41:07.129Z,29.50
2022-07-25T20:43:10.026Z,29.40
2022-07-25T20:45:11.906Z,29.40
2022-07-25T20:47:15.950Z,29.40
2022-07-25T20:49:17.789Z,29.30
2022-07-25T20:51:19.569Z,29.30
2022-07-25T20:53:21.585Z,29.20
2022-07-25T20:55:23.310Z,29.20
2022-07-25T20:57:25.300Z,29.20
2022-07-25T20:59:27.239Z,29.20
2022-07-25T21:01:29.042Z,29.20
2022-07-25T21:03:31.090Z,29.10
2022-07-25T21:05:33.335Z,29.10
2022-07-25T21:07:35.117Z,29.10
2022-07-25T21:09:37.574Z,29.00
2022-07-25T21:11:39.488Z,29.00
2022-07-25T21:13:41.223Z,29.00
2022-07-25T21:15:42.965Z,29.00
2022-07-25T21:17:44.700Z,29.00
2022-07-25T21:19:46.453Z,28.90
2022-07-25T21:21:48.511Z,28.90
2022-07-25T21:23:50.532Z,28.90
2022-07-25T21:25:52.356Z,28.80
2022-07-25T21:27:54.108Z,28.80
2022-07-25T21:29:55.816Z,28.70
2022-07-25T21:31:57.593Z,28.70
2022-07-25T21:33:59.899Z,28.70
2022-07-25T21:36:01.750Z,28.60
2022-07-25T21:38:03.588Z,28.60
2022-07-25T21:40:05.737Z,28.50
2022-07-25T21:42:09.851Z,28.50
2022-07-25T21:44:12.080Z,28.50
2022-07-25T21:46:13.892Z,28.40
2022-07-25T21:48:15.611Z,28.40
2022-07-25T21:50:43.762Z,28.30
2022-07-25T21:52:45.905Z,28.30
2022-07-25T21:54:47.640Z,28.20
2022-07-25T21:56:49.492Z,28.10
2022-07-25T21:58:51.223Z,28.10
2022-07-25T22:00:53.037Z,28.00
2022-07-25T22:02:54.933Z,28.00
2022-07-25T22:04:56.610Z,27.90
2022-07-25T22:06:58.378Z,27.90
2022-07-25T22:09:00.107Z,27.80
2022-07-25T22:11:15.599Z,27.80
2022-07-25T22:13:18.086Z,27.80
2022-07-25T22:15:19.876Z,27.70
2022-07-25T22:17:21.573Z,27.70
2022-07-25T22:19:23.531Z,27.60
2022-07-25T22:21:25.286Z,27.60
2022-07-25T22:23:27.000Z,27.50
2022-07-25T22:25:28.969Z,27.50
2022-07-25T22:27:30.712Z,27.40
2022-07-25T22:29:32.397Z,27.40
2022-07-25T22:31:34.400Z,27.40
2022-07-25T22:33:38.089Z,27.30
2022-07-25T22:35:39.747Z,27.30
2022-07-25T22:37:41.487Z,27.30
2022-07-25T22:39:43.177Z,27.30
2022-07-25T22:41:44.997Z,27.20
2022-07-25T22:43:59.056Z,27.20
2022-07-25T22:46:01.726Z,27.20
2022-07-25T22:48:03.569Z,27.10
2022-07-25T22:50:05.742Z,27.10
2022-07-25T22:52:07.844Z,27.10
2022-07-25T22:54:09.589Z,27.10
2022-07-25T22:56:11.887Z,27.00
2022-07-25T22:58:13.585Z,27.00
2022-07-25T23:00:15.629Z,27.00
2022-07-25T23:02:17.301Z,27.00
2022-07-25T23:04:19.246Z,27.00
2022-07-25T23:06:21.289Z,26.90
2022-07-25T23:08:22.947Z,26.90
2022-07-25T23:10:24.676Z,26.90
2022-07-25T23:12:26.382Z,26.90
2022-07-25T23:14:28.043Z,26.90
2022-07-25T23:16:29.829Z,26.90
2022-07-25T23:18:31.785Z,26.80
2022-07-25T23:20:33.428Z,26.80
2022-07-25T23:22:35.115Z,26.90
2022-07-25T23:24:38.105Z,26.80
2022-07-25T23:26:40.018Z,26.80
2022-07-25T23:28:41.790Z,26.80
2022-07-25T23:30:43.494Z,26.80
2022-07-25T23:32:45.242Z,26.80
2022-07-25T23:34:46.985Z,26.80
2022-07-25T23:36:48.651Z,26.80
2022-07-25T23:38:50.376Z,26.80
2022-07-25T23:40:54.047Z,26.80
2022-07-25T23:42:55.784Z,26.80
2022-07-25T23:44:57.494Z,26.80
2022-07-25T23:47:01.889Z,26.80
2022-07-25T23:49:04.349Z,26.80
2022-07-25T23:51:06.722Z,26.80
2022-07-25T23:53:08.581Z,26.80
2022-07-25T23:55:10.254Z,26.80
2022-07-25T23:57:12.637Z,26.80
2022-07-25T23:59:14.771Z,26.80
